Country Club Hills, Missouri
Current Conditions -  °F | °C
As of 1:51 AM on Sunday 21 Dec 2014 (Local Time) from KSTL Reporting Station
Overcast Overcast  
Wind Chill: 38°   Ceiling: 2400
Heat Index: 42°   Visibility: 10mi
Dew Point: 32°   Wind: 7mph
Humidity: 67%   Direction: 150°SSE
Pressure: 30.23"   Gusts: NA
Location:  38.7423°N, 90.2608°W
Report Text: KSTL 210751Z 15006KT 10SM OVC024 06/00 A3023 RMK AO2 SLP243 T00560000
Loading
Personal Weather Stations






























Interactive Weather Map New forecast layout! Learn more

10-Day Weather Forecast

Advertisements
Track Severe Weather on mobile